createdAt,value
2022-11-20T00:02:16.800Z,100597.61
2022-11-20T00:04:49.825Z,100609.81
2022-11-20T00:07:22.567Z,100605.91
2022-11-20T00:09:55.983Z,100611.68
2022-11-20T00:12:28.432Z,100626.33
2022-11-20T00:15:00.808Z,100629.98
2022-11-20T00:17:33.598Z,100637.14
2022-11-20T00:20:06.721Z,100645.19
2022-11-20T00:22:39.361Z,100647.75
2022-11-20T00:25:12.449Z,100635.66
2022-11-20T00:27:44.809Z,100632.45
2022-11-20T00:30:17.850Z,100630.83
2022-11-20T00:32:50.270Z,100630.48
2022-11-20T00:35:22.969Z,100638.63
2022-11-20T00:37:55.368Z,100652.16
2022-11-20T00:40:28.210Z,100661.44
2022-11-20T00:43:00.524Z,100663.08
2022-11-20T00:45:33.514Z,100663.86
2022-11-20T00:48:06.153Z,100665.97
2022-11-20T00:50:38.946Z,100656.37
2022-11-20T00:53:11.522Z,100650.65
2022-11-20T00:55:44.249Z,100662.17
2022-11-20T00:58:16.673Z,100662.62
2022-11-20T01:00:50.708Z,100667.84
2022-11-20T01:03:26.977Z,100663.26
2022-11-20T01:05:56.803Z,100650.16
2022-11-20T01:08:33.895Z,100639.85
2022-11-20T01:11:09.698Z,100642.56
2022-11-20T01:13:44.415Z,100643.30
2022-11-20T01:16:20.434Z,100648.03
2022-11-20T01:18:56.052Z,100645.86
2022-11-20T01:21:36.691Z,100646.86
2022-11-20T01:24:12.625Z,100647.84
2022-11-20T01:26:47.014Z,100643.50
2022-11-20T01:29:26.324Z,100644.39
2022-11-20T01:31:58.724Z,100647.49
2022-11-20T01:34:31.490Z,100648.82
2022-11-20T01:37:04.406Z,100653.99
2022-11-20T01:39:37.495Z,100649.02
2022-11-20T01:42:28.079Z,100647.58
2022-11-20T01:45:02.140Z,100638.17
2022-11-20T01:47:39.059Z,100643.89
2022-11-20T01:50:31.324Z,100648.38
2022-11-20T01:53:07.177Z,100655.47
2022-11-20T01:55:43.655Z,100654.88
2022-11-20T01:58:16.611Z,100669.91
2022-11-20T02:00:49.475Z,100668.73
2022-11-20T02:03:22.328Z,100661.24
2022-11-20T02:06:21.201Z,100667.02
2022-11-20T02:08:54.305Z,100667.75
2022-11-20T02:11:26.728Z,100671.73
2022-11-20T02:13:59.148Z,100678.00
2022-11-20T02:16:41.372Z,100674.50
2022-11-20T02:19:30.830Z,100670.52
2022-11-20T02:22:18.917Z,100667.35
2022-11-20T02:24:51.244Z,100685.88
2022-11-20T02:27:24.224Z,100674.41
2022-11-20T02:29:59.872Z,100671.39
2022-11-20T02:32:37.421Z,100673.47
2022-11-20T02:35:12.356Z,100689.25
2022-11-20T02:37:44.982Z,100693.14
2022-11-20T02:40:17.321Z,100685.92
2022-11-20T02:42:50.145Z,100687.11
2022-11-20T02:45:23.971Z,100679.31
2022-11-20T02:47:57.639Z,100672.30
2022-11-20T02:50:31.433Z,100670.66
2022-11-20T02:53:04.649Z,100676.55
2022-11-20T02:55:37.831Z,100674.06
2022-11-20T02:58:10.485Z,100665.02
2022-11-20T03:00:43.215Z,100666.75
2022-11-20T03:03:15.702Z,100677.89
2022-11-20T03:05:48.150Z,100681.95
2022-11-20T03:08:20.575Z,100684.77
2022-11-20T03:10:53.080Z,100689.16
2022-11-20T03:13:26.771Z,100686.50
2022-11-20T03:15:59.081Z,100687.83
2022-11-20T03:18:31.758Z,100695.72
2022-11-20T03:21:04.611Z,100691.22
2022-11-20T03:23:37.721Z,100699.16
2022-11-20T03:26:22.375Z,100709.77
2022-11-20T03:28:56.673Z,100714.22
2022-11-20T03:31:31.845Z,100716.10
2022-11-20T03:34:04.660Z,100708.75
2022-11-20T03:36:39.256Z,100714.03
2022-11-20T03:39:11.634Z,100707.42
2022-11-20T03:41:44.624Z,100698.55
2022-11-20T03:44:17.012Z,100697.98
2022-11-20T03:46:49.699Z,100696.84
2022-11-20T03:49:22.610Z,100700.84
2022-11-20T03:51:55.261Z,100703.84
2022-11-20T03:54:28.871Z,100690.46
2022-11-20T03:57:01.210Z,100689.02
2022-11-20T03:59:33.887Z,100694.75
2022-11-20T04:02:06.800Z,100691.17
2022-11-20T04:04:39.310Z,100688.08
2022-11-20T04:07:13.149Z,100698.74
2022-11-20T04:09:45.525Z,100696.31
2022-11-20T04:12:18.222Z,100703.12
2022-11-20T04:14:50.703Z,100704.80
2022-11-20T04:17:23.731Z,100707.02
2022-11-20T04:19:56.109Z,100702.08
2022-11-20T04:22:29.665Z,100705.26
2022-11-20T04:25:01.975Z,100707.13
2022-11-20T04:27:34.652Z,100704.63
2022-11-20T04:30:08.132Z,100697.73
2022-11-20T04:32:40.626Z,100693.41
2022-11-20T04:35:12.961Z,100686.36
2022-11-20T04:37:45.638Z,100690.69
2022-11-20T04:40:18.118Z,100687.47
2022-11-20T04:42:50.638Z,100688.69
2022-11-20T04:45:24.053Z,100675.64
2022-11-20T04:47:57.065Z,100674.25
2022-11-20T04:50:29.696Z,100665.38
2022-11-20T04:53:01.979Z,100664.04
2022-11-20T04:55:34.512Z,100653.44
2022-11-20T04:58:08.351Z,100635.77
2022-11-20T05:00:41.236Z,100637.92
2022-11-20T05:03:14.417Z,100638.88
2022-11-20T05:05:48.343Z,100636.27
2022-11-20T05:08:20.927Z,100631.26
2022-11-20T05:10:53.350Z,100628.59
2022-11-20T05:13:26.336Z,100630.27
2022-11-20T05:16:05.390Z,100627.03
2022-11-20T05:18:39.441Z,100635.88
2022-11-20T05:21:12.567Z,100635.03
2022-11-20T05:23:46.147Z,100644.36
2022-11-20T05:26:22.601Z,100647.81
2022-11-20T05:28:55.728Z,100630.59
2022-11-20T05:31:28.589Z,100613.33
2022-11-20T05:34:01.061Z,100610.72
2022-11-20T05:36:33.791Z,100608.99
2022-11-20T05:39:06.415Z,100611.14
2022-11-20T05:41:39.240Z,100613.75
2022-11-20T05:44:13.551Z,100620.88
2022-11-20T05:46:46.264Z,100611.54
2022-11-20T05:49:18.998Z,100616.81
2022-11-20T05:51:51.498Z,100622.09
2022-11-20T05:54:23.924Z,100629.60
2022-11-20T05:56:56.361Z,100632.21
2022-11-20T05:59:29.163Z,100630.94
2022-11-20T06:02:01.601Z,100617.61
2022-11-20T06:04:34.573Z,100617.16
2022-11-20T06:07:08.110Z,100626.20
2022-11-20T06:09:40.496Z,100618.53
2022-11-20T06:12:13.534Z,100624.45
2022-11-20T06:14:46.370Z,100627.63
2022-11-20T06:17:19.371Z,100634.30
2022-11-20T06:19:53.508Z,100630.19
2022-11-20T06:22:25.948Z,100631.34
2022-11-20T06:24:58.493Z,100635.56
2022-11-20T06:27:30.995Z,100630.71
2022-11-20T06:30:03.591Z,100629.14
2022-11-20T06:32:36.379Z,100631.75
2022-11-20T06:35:10.015Z,100626.74
2022-11-20T06:37:43.258Z,100623.63
2022-11-20T06:40:16.399Z,100621.34
2022-11-20T06:42:48.795Z,100612.83
2022-11-20T06:45:21.246Z,100608.97
2022-11-20T06:47:53.674Z,100604.05
2022-11-20T06:50:26.386Z,100607.78
2022-11-20T06:52:58.929Z,100607.20
2022-11-20T06:55:32.002Z,100603.80
2022-11-20T06:58:04.523Z,100606.07
2022-11-20T07:00:37.370Z,100603.67
2022-11-20T07:03:11.598Z,100608.23
2022-11-20T07:05:45.043Z,100610.41
2022-11-20T07:08:17.645Z,100611.41
2022-11-20T07:10:50.295Z,100612.23
2022-11-20T07:13:22.777Z,100609.13
2022-11-20T07:15:55.456Z,100597.12
2022-11-20T07:18:27.824Z,100598.94
2022-11-20T07:21:09.937Z,100595.27
2022-11-20T07:23:44.023Z,100578.86
2022-11-20T07:26:16.419Z,100587.65
2022-11-20T07:28:48.964Z,100592.98
2022-11-20T07:31:21.471Z,100605.30
2022-11-20T07:33:54.101Z,100599.90
2022-11-20T07:36:26.664Z,100602.47
2022-11-20T07:42:34.084Z,100622.31
2022-11-20T07:45:08.415Z,100627.06
2022-11-20T07:47:41.099Z,100619.72
2022-11-20T07:50:14.947Z,100607.56
2022-11-20T07:52:47.935Z,100615.45
2022-11-20T07:55:20.363Z,100610.66
2022-11-20T07:57:58.268Z,100605.31
2022-11-20T08:00:31.058Z,100600.37
2022-11-20T08:03:06.366Z,100588.28
2022-11-20T08:05:39.448Z,100581.94
2022-11-20T08:08:13.423Z,100560.05
2022-11-20T08:10:45.841Z,100561.11
2022-11-20T08:13:36.367Z,100569.13
2022-11-20T08:16:09.003Z,100581.98
2022-11-20T08:18:42.473Z,100586.06
2022-11-20T08:21:15.164Z,100577.27
2022-11-20T08:23:47.451Z,100571.05
2022-11-20T08:26:19.930Z,100583.63
2022-11-20T08:28:57.541Z,100577.01
2022-11-20T08:31:30.885Z,100570.33
2022-11-20T08:34:08.702Z,100580.34
2022-11-20T08:36:38.153Z,100585.94
2022-11-20T08:39:12.080Z,100585.94
2022-11-20T08:41:44.665Z,100567.99
2022-11-20T08:44:17.196Z,100573.66
2022-11-20T08:46:49.872Z,100572.19
2022-11-20T08:49:23.862Z,100576.33
2022-11-20T08:51:58.926Z,100583.88
2022-11-20T08:54:31.467Z,100573.30
2022-11-20T08:57:04.595Z,100565.74
2022-11-20T09:00:04.353Z,100564.97
2022-11-20T09:02:13.266Z,100550.53
2022-11-20T09:04:45.738Z,100532.63
2022-11-20T09:07:18.421Z,100526.89
2022-11-20T09:10:09.999Z,100516.97
2022-11-20T09:12:26.079Z,100523.29
2022-11-20T09:14:58.376Z,100531.30
2022-11-20T09:17:30.946Z,100524.56
2022-11-20T09:20:03.685Z,100517.95
2022-11-20T09:22:36.912Z,100516.48
2022-11-20T09:25:10.503Z,100519.22
2022-11-20T09:27:45.198Z,100521.16
2022-11-20T09:30:18.029Z,100515.75
2022-11-20T09:32:51.938Z,100512.59
2022-11-20T09:35:24.348Z,100505.52
2022-11-20T09:37:56.701Z,100500.80
2022-11-20T09:40:31.427Z,100498.84
2022-11-20T09:43:34.924Z,100489.62
2022-11-20T09:46:34.017Z,100493.64
2022-11-20T09:49:44.981Z,100485.83
2022-11-20T09:52:22.241Z,100482.70
2022-11-20T09:54:54.834Z,100483.22
2022-11-20T09:57:32.450Z,100478.76
2022-11-20T10:00:07.494Z,100478.30
2022-11-20T10:03:03.526Z,100473.03
2022-11-20T10:05:48.460Z,100477.10
2022-11-20T10:08:31.704Z,100467.33
2022-11-20T10:11:50.759Z,100467.08
2022-11-20T10:14:39.499Z,100471.64
2022-11-20T10:17:43.130Z,100468.28
2022-11-20T10:21:05.498Z,100457.84
2022-11-20T10:24:01.232Z,100449.38
2022-11-20T10:26:53.560Z,100444.70
2022-11-20T10:29:34.855Z,100442.42
2022-11-20T10:32:20.989Z,100428.74
2022-11-20T10:35:03.359Z,100437.00
2022-11-20T10:37:36.726Z,100436.30
2022-11-20T10:40:40.535Z,100439.64
2022-11-20T10:43:27.093Z,100437.29
2022-11-20T10:46:06.098Z,100428.33
2022-11-20T10:48:38.607Z,100424.66
2022-11-20T10:51:29.225Z,100426.77
2022-11-20T10:54:36.417Z,100430.40
2022-11-20T10:57:19.439Z,100425.93
2022-11-20T11:00:05.716Z,100432.12
2022-11-20T11:02:51.959Z,100418.91
2022-11-20T11:05:35.994Z,100412.29
2022-11-20T11:08:16.932Z,100407.23
2022-11-20T11:10:59.516Z,100398.93
2022-11-20T11:13:32.466Z,100399.81
2022-11-20T11:16:05.539Z,100405.47
2022-11-20T11:18:39.242Z,100397.38
2022-11-20T11:21:12.705Z,100407.68
2022-11-20T11:23:45.672Z,100396.11
2022-11-20T11:26:27.023Z,100392.98
2022-11-20T11:29:01.831Z,100397.45
2022-11-20T11:31:36.648Z,100390.70
2022-11-20T11:34:17.232Z,100392.59
2022-11-20T11:37:00.294Z,100387.64
2022-11-20T11:39:33.754Z,100386.69
2022-11-20T11:42:06.349Z,100388.59
2022-11-20T11:44:57.240Z,100381.88
2022-11-20T11:47:35.415Z,100383.02
2022-11-20T11:50:27.566Z,100382.91
2022-11-20T11:53:21.071Z,100401.61
2022-11-20T11:56:12.467Z,100382.80
2022-11-20T11:58:55.112Z,100383.50
2022-11-20T12:01:39.537Z,100375.95
2022-11-20T12:04:32.241Z,100369.73
2022-11-20T12:07:38.716Z,100363.33
2022-11-20T12:09:50.538Z,100365.44
2022-11-20T12:12:30.979Z,100353.42
2022-11-20T12:15:03.446Z,100361.75
2022-11-20T12:17:36.815Z,100367.45
2022-11-20T12:20:15.702Z,100379.46
2022-11-20T12:23:23.609Z,100378.66
2022-11-20T12:25:57.600Z,100378.73
2022-11-20T12:28:40.747Z,100385.61
2022-11-20T12:31:37.125Z,100379.88
2022-11-20T12:34:26.553Z,100361.93
2022-11-20T12:37:42.965Z,100375.10
2022-11-20T12:40:44.370Z,100360.09
2022-11-20T12:43:42.841Z,100357.22
2022-11-20T12:46:34.841Z,100355.32
2022-11-20T12:49:30.538Z,100349.66
2022-11-20T12:52:25.855Z,100334.52
2022-11-20T12:55:15.084Z,100313.64
2022-11-20T12:58:10.953Z,100301.55
2022-11-20T13:00:48.316Z,100304.86
2022-11-20T13:03:43.854Z,100303.11
2022-11-20T13:06:21.399Z,100296.84
2022-11-20T13:08:59.651Z,100300.36
2022-11-20T13:12:12.797Z,100316.78
2022-11-20T13:15:01.455Z,100324.37
2022-11-20T13:18:00.224Z,100324.19
2022-11-20T13:20:33.696Z,100322.75
2022-11-20T13:23:06.157Z,100320.68
2022-11-20T13:25:41.911Z,100319.34
2022-11-20T13:28:19.823Z,100305.86
2022-11-20T13:30:56.580Z,100298.72
2022-11-20T13:33:37.575Z,100293.45
2022-11-20T13:36:27.138Z,100291.38
2022-11-20T13:38:59.550Z,100287.45
2022-11-20T13:41:39.975Z,100284.25
2022-11-20T13:44:19.405Z,100285.59
2022-11-20T13:46:52.413Z,100273.95
2022-11-20T13:49:45.194Z,100270.38
2022-11-20T13:52:54.696Z,100272.62
2022-11-20T13:55:43.833Z,100270.38
2022-11-20T13:58:44.056Z,100274.45
2022-11-20T14:01:27.301Z,100272.98
2022-11-20T14:04:07.475Z,100256.89
2022-11-20T14:06:35.529Z,100234.27
2022-11-20T14:09:09.563Z,100240.20
2022-11-20T14:11:50.224Z,100263.49
2022-11-20T14:14:25.802Z,100257.06
2022-11-20T14:17:10.432Z,100263.87
2022-11-20T14:19:42.857Z,100268.09
2022-11-20T14:22:28.652Z,100280.87
2022-11-20T14:25:08.179Z,100278.56
2022-11-20T14:27:42.964Z,100269.08
2022-11-20T14:30:18.393Z,100259.24
2022-11-20T14:32:51.961Z,100259.73
2022-11-20T14:35:39.427Z,100270.34
2022-11-20T14:38:15.769Z,100270.80
2022-11-20T14:40:48.312Z,100262.41
2022-11-20T14:43:29.126Z,100246.63
2022-11-20T14:46:08.206Z,100246.08
2022-11-20T14:48:52.513Z,100237.15
2022-11-20T14:51:35.851Z,100239.08
2022-11-20T14:54:17.586Z,100216.61
2022-11-20T14:57:03.808Z,100220.75
2022-11-20T14:59:37.176Z,100211.27
2022-11-20T15:02:12.076Z,100215.20
2022-11-20T15:04:52.657Z,100215.86
2022-11-20T15:07:35.135Z,100201.50
2022-11-20T15:10:11.507Z,100197.34
2022-11-20T15:12:58.037Z,100192.01
2022-11-20T15:15:49.142Z,100196.40
2022-11-20T15:18:28.448Z,100192.08
2022-11-20T15:21:04.268Z,100191.20
2022-11-20T15:23:36.548Z,100189.25
2022-11-20T15:26:09.787Z,100206.81
2022-11-20T15:28:47.967Z,100206.00
2022-11-20T15:31:23.491Z,100193.47
2022-11-20T15:33:57.157Z,100191.91
2022-11-20T15:36:29.453Z,100201.64
2022-11-20T15:39:03.755Z,100198.97
2022-11-20T15:41:37.866Z,100208.31
2022-11-20T15:44:12.026Z,100212.61
2022-11-20T15:46:46.134Z,100222.44
2022-11-20T15:49:19.919Z,100221.32
2022-11-20T15:51:53.772Z,100225.78
2022-11-20T15:54:26.630Z,100232.00
2022-11-20T15:57:00.259Z,100227.36
2022-11-20T15:59:32.817Z,100235.95
2022-11-20T16:02:08.202Z,100243.02
2022-11-20T16:04:41.075Z,100226.86
2022-11-20T16:07:14.651Z,100225.66
2022-11-20T16:09:48.400Z,100222.05
2022-11-20T16:12:38.981Z,100204.84
2022-11-20T16:15:30.351Z,100191.33
2022-11-20T16:18:02.832Z,100169.06
2022-11-20T16:20:36.225Z,100160.32
2022-11-20T16:23:08.778Z,100158.19
2022-11-20T16:25:41.304Z,100162.19
2022-11-20T16:28:18.922Z,100156.16
2022-11-20T16:30:49.501Z,100165.49
2022-11-20T16:33:22.695Z,100171.28
2022-11-20T16:35:55.333Z,100169.56
2022-11-20T16:38:27.755Z,100172.37
2022-11-20T16:41:05.273Z,100159.56
2022-11-20T16:43:38.261Z,100152.89
2022-11-20T16:46:11.039Z,100154.72
2022-11-20T16:48:44.597Z,100149.91
2022-11-20T16:51:17.026Z,100149.04
2022-11-20T16:53:51.030Z,100143.70
2022-11-20T16:56:25.604Z,100137.52
2022-11-20T16:59:00.121Z,100148.27
2022-11-20T17:01:33.005Z,100140.19
2022-11-20T17:04:07.210Z,100145.53
2022-11-20T17:06:43.938Z,100154.38
2022-11-20T17:09:16.681Z,100153.45
2022-11-20T17:11:50.959Z,100149.11
2022-11-20T17:14:23.919Z,100155.39
2022-11-20T17:16:56.702Z,100150.55
2022-11-20T17:19:29.240Z,100156.56
2022-11-20T17:22:02.259Z,100155.22
2022-11-20T17:24:35.423Z,100151.08
2022-11-20T17:27:08.307Z,100153.11
2022-11-20T17:29:42.176Z,100141.98
2022-11-20T17:32:15.448Z,100144.12
2022-11-20T17:34:49.106Z,100135.70
2022-11-20T17:37:21.492Z,100133.45
2022-11-20T17:39:54.645Z,100125.22
2022-11-20T17:42:30.157Z,100113.36
2022-11-20T17:45:02.522Z,100115.61
2022-11-20T17:47:39.187Z,100108.48
2022-11-20T17:50:12.530Z,100095.95
2022-11-20T17:52:45.509Z,100095.45
2022-11-20T17:55:18.156Z,100086.04
2022-11-20T17:57:53.671Z,100087.79
2022-11-20T18:00:27.147Z,100087.94
2022-11-20T18:02:59.690Z,100097.81
2022-11-20T18:05:32.393Z,100106.13
2022-11-20T18:08:05.017Z,100087.14
2022-11-20T18:10:37.455Z,100095.53
2022-11-20T18:13:10.408Z,100094.84
2022-11-20T18:15:43.271Z,100094.39
2022-11-20T18:18:15.821Z,100095.55
2022-11-20T18:20:48.480Z,100081.50
2022-11-20T18:23:20.892Z,100073.95
2022-11-20T18:25:54.108Z,100069.11
2022-11-20T18:28:27.934Z,100062.44
2022-11-20T18:31:00.608Z,100065.88
2022-11-20T18:33:33.833Z,100065.96
2022-11-20T18:36:22.282Z,100065.66
2022-11-20T18:38:57.878Z,100059.86
2022-11-20T18:41:50.649Z,100064.16
2022-11-20T18:44:43.580Z,100059.29
2022-11-20T18:47:22.145Z,100045.71
2022-11-20T18:49:57.544Z,100041.56
2022-11-20T18:52:36.883Z,100036.06
2022-11-20T18:55:09.586Z,100047.20
2022-11-20T18:57:42.419Z,100046.82
2022-11-20T19:00:15.828Z,100039.77
2022-11-20T19:02:48.594Z,100040.07
2022-11-20T19:05:21.428Z,100031.68
2022-11-20T19:07:54.007Z,100031.11
2022-11-20T19:10:27.274Z,100029.47
2022-11-20T19:13:00.398Z,100026.19
2022-11-20T19:15:36.174Z,100022.88
2022-11-20T19:18:10.105Z,100018.80
2022-11-20T19:20:44.812Z,100032.44
2022-11-20T19:23:18.794Z,100025.70
2022-11-20T19:25:51.087Z,100024.77
2022-11-20T19:28:23.829Z,100013.76
2022-11-20T19:30:57.381Z,100009.45
2022-11-20T19:33:29.952Z,100021.95
2022-11-20T19:36:21.058Z,100018.11
2022-11-20T19:38:55.024Z,100006.86
2022-11-20T19:41:32.392Z,99996.18
2022-11-20T19:44:15.995Z,99986.45
2022-11-20T19:46:50.967Z,99981.91
2022-11-20T19:49:23.292Z,99989.42
2022-11-20T19:51:56.604Z,99985.42
2022-11-20T19:54:29.125Z,99985.20
2022-11-20T19:57:01.594Z,99985.27
2022-11-20T19:59:34.304Z,99975.70
2022-11-20T20:02:07.146Z,99963.28
2022-11-20T20:04:39.522Z,99949.94
2022-11-20T20:07:12.510Z,99947.37
2022-11-20T20:09:44.922Z,99948.79
2022-11-20T20:12:17.824Z,99950.05
2022-11-20T20:14:50.434Z,99958.36
2022-11-20T20:17:23.112Z,99960.08
2022-11-20T20:19:55.413Z,99961.79
2022-11-20T20:22:30.065Z,99975.21
2022-11-20T20:25:02.317Z,99967.28
2022-11-20T20:27:36.661Z,99960.72
2022-11-20T20:30:12.038Z,99963.05
2022-11-20T20:32:45.973Z,99958.45
2022-11-20T20:35:18.454Z,99954.52
2022-11-20T20:37:50.986Z,99954.44
2022-11-20T20:40:23.478Z,99956.95
2022-11-20T20:42:57.376Z,99962.13
2022-11-20T20:45:29.912Z,99958.52
2022-11-20T20:48:02.450Z,99957.94
2022-11-20T20:50:34.999Z,99950.81
2022-11-20T20:53:08.082Z,99959.12
2022-11-20T20:55:41.280Z,99952.86
2022-11-20T20:58:14.194Z,99950.19
2022-11-20T21:00:47.009Z,99945.08
2022-11-20T21:03:19.843Z,99946.25
2022-11-20T21:05:57.682Z,99948.92
2022-11-20T21:08:30.065Z,99950.26
2022-11-20T21:11:06.600Z,99960.28
2022-11-20T21:13:39.839Z,99960.78
2022-11-20T21:16:13.457Z,99955.90
2022-11-20T21:18:47.597Z,99954.95
2022-11-20T21:21:38.442Z,99967.67
2022-11-20T21:24:13.107Z,99968.47
2022-11-20T21:26:47.058Z,99965.09
2022-11-20T21:29:22.474Z,99968.30
2022-11-20T21:31:56.663Z,99970.13
2022-11-20T21:34:29.995Z,99977.17
2022-11-20T21:37:02.366Z,99978.05
2022-11-20T21:39:35.459Z,99985.98
2022-11-20T21:42:07.767Z,99981.02
2022-11-20T21:44:40.248Z,99981.88
2022-11-20T21:47:13.597Z,99983.91
2022-11-20T21:49:46.580Z,99984.78
2022-11-20T21:52:19.068Z,99980.85
2022-11-20T21:54:52.153Z,99981.31
2022-11-20T21:57:24.714Z,99985.48
2022-11-20T21:59:57.025Z,99977.16
2022-11-20T22:02:29.542Z,99980.33
2022-11-20T22:05:02.392Z,99981.33
2022-11-20T22:07:35.461Z,99987.00
2022-11-20T22:10:08.845Z,99975.91
2022-11-20T22:12:41.224Z,99986.59
2022-11-20T22:15:28.020Z,99975.69
2022-11-20T22:18:07.001Z,99974.05
2022-11-20T22:20:40.400Z,99967.30
2022-11-20T22:23:13.580Z,99958.71
2022-11-20T22:25:46.156Z,99953.78
2022-11-20T22:28:19.113Z,99949.28
2022-11-20T22:30:51.566Z,99944.52
2022-11-20T22:33:23.906Z,99940.89
2022-11-20T22:36:05.137Z,99933.13
2022-11-20T22:38:39.606Z,99941.52
2022-11-20T22:41:20.059Z,99932.33
2022-11-20T22:43:58.843Z,99941.38
2022-11-20T22:46:33.572Z,99933.60
2022-11-20T22:49:09.643Z,99934.02
2022-11-20T22:51:43.095Z,99927.34
2022-11-20T22:54:15.732Z,99932.03
2022-11-20T22:56:49.279Z,99942.55
2022-11-20T22:59:21.968Z,99932.75
2022-11-20T23:01:54.267Z,99930.62
2022-11-20T23:04:26.733Z,99939.00
2022-11-20T23:06:59.525Z,99940.04
2022-11-20T23:09:32.147Z,99943.59
2022-11-20T23:12:05.395Z,99943.28
2022-11-20T23:14:38.253Z,99939.28
2022-11-20T23:17:10.702Z,99949.95
2022-11-20T23:19:43.806Z,99950.34
2022-11-20T23:22:16.430Z,99938.24
2022-11-20T23:24:48.744Z,99947.81
2022-11-20T23:27:24.792Z,99941.13
2022-11-20T23:29:56.710Z,99941.22
2022-11-20T23:32:29.481Z,99943.01
2022-11-20T23:35:02.079Z,99929.92
2022-11-20T23:37:34.601Z,99926.67
2022-11-20T23:40:09.028Z,99924.08
2022-11-20T23:42:44.317Z,99921.03
2022-11-20T23:45:16.853Z,99913.02
2022-11-20T23:47:50.601Z,99903.76
2022-11-20T23:50:22.974Z,99899.84
2022-11-20T23:52:55.274Z,99897.55
2022-11-20T23:55:27.591Z,99916.56
2022-11-20T23:58:00.015Z,99918.83
